createdAt,value
2022-08-25T00:03:08.815Z,22.67
2022-08-25T00:08:11.627Z,19.15
2022-08-25T00:13:14.869Z,19.45
2022-08-25T00:18:20.072Z,19.27
2022-08-25T00:23:23.331Z,21.67
2022-08-25T00:28:26.238Z,17.65
2022-08-25T00:33:31.697Z,19.13
2022-08-25T00:38:34.548Z,18.63
2022-08-25T00:43:46.565Z,17.38
2022-08-25T00:48:54.420Z,14.43
2022-08-25T00:53:57.620Z,18.20
2022-08-25T00:59:01.079Z,14.80
2022-08-25T01:04:07.842Z,16.77
2022-08-25T01:09:12.144Z,14.85
2022-08-25T01:14:20.178Z,14.50
2022-08-25T01:19:28.195Z,15.95
2022-08-25T01:24:39.019Z,11.90
2022-08-25T01:29:41.992Z,18.08
2022-08-25T01:34:46.911Z,12.27
2022-08-25T01:39:51.602Z,17.75
2022-08-25T01:44:54.849Z,17.30
2022-08-25T01:49:57.755Z,11.00
2022-08-25T01:55:02.329Z,16.02
2022-08-25T02:00:07.083Z,16.60
2022-08-25T02:05:10.766Z,12.38
2022-08-25T02:10:15.429Z,18.02
2022-08-25T02:15:18.585Z,20.92
2022-08-25T02:20:21.636Z,17.52
2022-08-25T02:25:28.784Z,15.57
2022-08-25T02:30:31.865Z,14.30
2022-08-25T02:35:35.080Z,13.05
2022-08-25T02:40:39.466Z,17.95
2022-08-25T02:45:42.393Z,14.98
2022-08-25T02:50:47.563Z,27.83
2022-08-25T02:55:52.144Z,18.42
2022-08-25T03:00:56.838Z,19.42
2022-08-25T03:06:00.122Z,16.77
2022-08-25T03:11:04.569Z,20.75
2022-08-25T03:16:11.422Z,18.27
2022-08-25T03:21:16.291Z,22.08
2022-08-25T03:26:40.438Z,20.55
2022-08-25T03:31:45.144Z,21.58
2022-08-25T03:36:50.581Z,24.58
2022-08-25T03:41:55.017Z,28.75
2022-08-25T03:46:58.098Z,19.60
2022-08-25T03:52:04.237Z,23.35
2022-08-25T03:57:09.832Z,28.58
2022-08-25T04:02:12.846Z,30.45
2022-08-25T04:07:15.775Z,27.13
2022-08-25T04:12:20.059Z,24.00
2022-08-25T04:17:26.269Z,23.60
2022-08-25T04:22:30.011Z,26.75
2022-08-25T04:27:34.781Z,22.13
2022-08-25T04:32:37.963Z,31.85
2022-08-25T04:37:41.004Z,25.25
2022-08-25T04:42:45.664Z,24.65
2022-08-25T04:47:54.836Z,27.17
2022-08-25T04:52:58.234Z,20.75
2022-08-25T04:58:03.114Z,32.90
2022-08-25T05:03:06.218Z,29.42
2022-08-25T05:08:10.464Z,30.60
2022-08-25T05:13:15.791Z,26.08
2022-08-25T05:18:19.596Z,32.00
2022-08-25T05:23:23.905Z,29.58
2022-08-25T05:28:28.153Z,36.28
2022-08-25T05:33:32.996Z,26.25
2022-08-25T05:38:36.160Z,33.40
2022-08-25T05:43:42.502Z,29.10
2022-08-25T05:48:45.671Z,38.13
2022-08-25T05:53:50.104Z,25.60
2022-08-25T05:58:54.776Z,29.15
2022-08-25T06:04:00.410Z,30.48
2022-08-25T06:09:05.458Z,24.58
2022-08-25T06:14:10.820Z,23.98
2022-08-25T06:19:13.772Z,26.23
2022-08-25T06:24:17.615Z,21.95
2022-08-25T06:29:22.250Z,26.48
2022-08-25T06:34:25.253Z,22.45
2022-08-25T06:39:30.626Z,22.88
2022-08-25T06:44:35.635Z,20.40
2022-08-25T06:49:38.919Z,31.10
2022-08-25T06:54:42.087Z,26.63
2022-08-25T06:59:47.047Z,26.60
2022-08-25T07:04:50.687Z,27.77
2022-08-25T07:09:53.590Z,28.92
2022-08-25T07:15:17.277Z,28.88
2022-08-25T07:20:21.030Z,31.52
2022-08-25T07:25:26.993Z,19.63
2022-08-25T07:30:32.382Z,21.92
2022-08-25T07:35:37.835Z,23.55
2022-08-25T07:40:42.833Z,24.85
2022-08-25T07:45:49.199Z,27.42
2022-08-25T07:50:52.594Z,18.38
2022-08-25T07:55:55.629Z,19.52
2022-08-25T08:00:59.997Z,17.40
2022-08-25T08:06:08.390Z,18.83
2022-08-25T08:11:16.138Z,18.80
2022-08-25T08:16:23.127Z,25.33
2022-08-25T08:21:29.120Z,19.95
2022-08-25T08:26:55.275Z,19.98
2022-08-25T08:31:57.891Z,24.10
2022-08-25T08:37:02.303Z,25.67
2022-08-25T08:42:20.101Z,21.45
2022-08-25T08:47:33.286Z,20.33
2022-08-25T08:52:43.537Z,15.93
2022-08-25T08:57:51.518Z,22.10
2022-08-25T09:03:02.910Z,17.95
2022-08-25T09:08:10.440Z,11.95
2022-08-25T09:13:26.107Z,20.63
2022-08-25T09:18:51.114Z,18.73
2022-08-25T09:24:11.780Z,15.05
2022-08-25T09:34:29.157Z,23.88
2022-08-25T09:39:32.166Z,16.35
2022-08-25T09:44:43.850Z,14.30
2022-08-25T09:49:50.874Z,13.30
2022-08-25T09:54:55.260Z,18.08
2022-08-25T10:00:09.634Z,15.57
2022-08-25T10:05:35.693Z,18.52
2022-08-25T10:10:44.033Z,16.27
2022-08-25T10:15:48.653Z,16.00
2022-08-25T10:21:07.785Z,13.77
2022-08-25T10:26:17.191Z,11.32
2022-08-25T10:31:24.464Z,22.25
2022-08-25T10:36:39.011Z,20.05
2022-08-25T10:41:55.108Z,19.13
2022-08-25T10:47:15.920Z,8.07
2022-08-25T10:52:30.969Z,13.93
2022-08-25T10:57:41.762Z,11.07
2022-08-25T11:03:06.965Z,8.25
2022-08-25T11:08:17.515Z,9.27
2022-08-25T11:13:27.284Z,9.43
2022-08-25T11:18:32.617Z,10.73
2022-08-25T11:23:45.094Z,9.40
2022-08-25T11:28:56.592Z,9.68
2022-08-25T11:33:59.981Z,10.20
2022-08-25T11:39:31.169Z,8.73
2022-08-25T11:45:05.262Z,7.60
2022-08-25T11:50:23.730Z,9.77
2022-08-25T11:55:50.697Z,11.52
2022-08-25T12:00:55.611Z,7.35
2022-08-25T12:06:18.105Z,10.27
2022-08-25T12:11:46.387Z,11.15
2022-08-25T12:17:13.336Z,11.40
2022-08-25T12:22:44.524Z,11.10
2022-08-25T12:28:01.835Z,6.63
2022-08-25T12:33:12.003Z,9.43
2022-08-25T12:38:19.298Z,13.77
2022-08-25T12:43:33.286Z,8.70
2022-08-25T12:48:55.708Z,9.38
2022-08-25T12:54:11.691Z,21.13
2022-08-25T12:59:23.477Z,9.23
2022-08-25T13:05:02.593Z,7.60
2022-08-25T13:10:27.518Z,9.05
2022-08-25T13:15:38.644Z,6.57
2022-08-25T13:20:43.952Z,8.63
2022-08-25T13:25:50.644Z,7.03
2022-08-25T13:31:01.315Z,8.23
2022-08-25T13:36:23.295Z,4.50
2022-08-25T13:41:29.454Z,8.88
2022-08-25T13:46:35.480Z,5.70
2022-08-25T13:51:43.663Z,29.30
2022-08-25T13:56:46.577Z,14.18
2022-08-25T14:01:52.834Z,46.95
2022-08-25T14:07:26.445Z,17.05
2022-08-25T14:12:34.229Z,8.10
2022-08-25T14:17:42.746Z,16.88
2022-08-25T14:22:46.027Z,10.75
2022-08-25T14:28:13.761Z,6.10
2022-08-25T14:33:20.932Z,8.02
2022-08-25T14:38:24.629Z,6.55
2022-08-25T14:43:31.755Z,7.53
2022-08-25T14:48:42.903Z,4.70
2022-08-25T14:53:46.218Z,7.78
2022-08-25T14:58:53.973Z,19.67
2022-08-25T15:04:04.977Z,12.55
2022-08-25T15:14:29.009Z,7.10
2022-08-25T15:19:37.655Z,8.02
2022-08-25T15:24:42.463Z,6.53
2022-08-25T15:29:45.308Z,7.22
2022-08-25T15:34:51.823Z,8.25
2022-08-25T15:39:55.202Z,5.25
2022-08-25T15:44:58.920Z,4.38
2022-08-25T15:50:07.643Z,4.68
2022-08-25T15:55:11.564Z,6.82
2022-08-25T16:00:16.706Z,9.05
2022-08-25T16:05:25.818Z,10.88
2022-08-25T16:10:29.228Z,9.45
2022-08-25T16:15:32.838Z,10.10
2022-08-25T16:20:37.475Z,8.20
2022-08-25T16:25:42.385Z,5.53
2022-08-25T16:30:52.989Z,8.20
2022-08-25T16:36:07.431Z,6.18
2022-08-25T16:41:14.261Z,10.10
2022-08-25T16:46:19.748Z,8.93
2022-08-25T16:51:25.576Z,9.40
2022-08-25T16:56:35.425Z,9.40
2022-08-25T17:01:41.982Z,7.32
2022-08-25T17:06:49.547Z,6.45
2022-08-25T17:11:57.028Z,9.37
2022-08-25T17:17:07.105Z,8.98
2022-08-25T17:22:16.025Z,12.60
2022-08-25T17:27:21.804Z,5.10
2022-08-25T17:32:30.190Z,9.23
2022-08-25T17:37:35.033Z,7.43
2022-08-25T17:42:38.320Z,9.98
2022-08-25T17:47:41.607Z,10.18
2022-08-25T17:52:46.318Z,7.53
2022-08-25T17:57:49.591Z,8.00
2022-08-25T18:02:52.405Z,6.55
2022-08-25T18:07:57.275Z,8.20
2022-08-25T18:13:02.521Z,10.70
2022-08-25T18:18:06.039Z,10.50
2022-08-25T18:23:10.816Z,12.43
2022-08-25T18:28:14.109Z,7.05
2022-08-25T18:33:19.198Z,9.70
2022-08-25T18:38:42.853Z,6.50
2022-08-25T18:43:46.137Z,9.30
2022-08-25T18:48:49.287Z,8.50
2022-08-25T18:53:59.138Z,11.40
2022-08-25T18:59:04.918Z,7.72
2022-08-25T19:04:10.739Z,10.13
2022-08-25T19:09:15.896Z,10.05
2022-08-25T19:14:19.422Z,8.50
2022-08-25T19:19:22.466Z,9.93
2022-08-25T19:24:28.816Z,8.48
2022-08-25T19:29:32.156Z,8.07
2022-08-25T19:34:42.182Z,10.23
2022-08-25T19:39:53.014Z,10.07
2022-08-25T19:44:56.264Z,11.05
2022-08-25T19:49:59.351Z,10.18
2022-08-25T19:55:04.625Z,9.13
2022-08-25T20:00:10.600Z,16.10
2022-08-25T20:05:14.378Z,11.15
2022-08-25T20:10:21.491Z,13.55
2022-08-25T20:15:24.702Z,11.73
2022-08-25T20:20:32.641Z,10.68
2022-08-25T20:25:42.157Z,12.55
2022-08-25T20:30:45.734Z,11.32
2022-08-25T20:35:48.906Z,12.98
2022-08-25T20:40:53.340Z,11.55
2022-08-25T20:46:00.781Z,9.77
2022-08-25T20:51:05.289Z,12.02
2022-08-25T20:56:10.942Z,12.02
2022-08-25T21:01:20.410Z,14.57
2022-08-25T21:06:26.092Z,10.52
2022-08-25T21:11:30.837Z,8.82
2022-08-25T21:16:38.315Z,14.55
2022-08-25T21:21:41.827Z,13.57
2022-08-25T21:26:51.059Z,10.38
2022-08-25T21:31:54.741Z,13.25
2022-08-25T21:36:58.307Z,14.70
2022-08-25T21:42:04.545Z,12.65
2022-08-25T21:47:07.786Z,12.30
2022-08-25T21:52:11.134Z,11.35
2022-08-25T21:57:19.189Z,12.77
2022-08-25T22:02:26.849Z,10.15
2022-08-25T22:07:34.430Z,12.32
2022-08-25T22:12:45.786Z,10.63
2022-08-25T22:17:49.661Z,10.75
2022-08-25T22:22:52.921Z,10.50
2022-08-25T22:27:57.323Z,11.77
2022-08-25T22:33:00.800Z,10.70
2022-08-25T22:38:05.274Z,12.32
2022-08-25T22:43:10.953Z,13.38
2022-08-25T22:48:14.299Z,10.25
2022-08-25T22:53:17.267Z,12.25
2022-08-25T22:58:22.257Z,15.60
2022-08-25T23:03:26.319Z,14.27
2022-08-25T23:08:38.931Z,11.32
2022-08-25T23:13:45.844Z,10.93
2022-08-25T23:18:49.260Z,12.30
2022-08-25T23:23:52.547Z,10.50
2022-08-25T23:28:57.475Z,13.60
2022-08-25T23:34:01.054Z,13.80
2022-08-25T23:39:06.657Z,15.57
2022-08-25T23:44:17.495Z,13.77
2022-08-25T23:49:23.157Z,12.85
2022-08-25T23:54:31.067Z,11.18
2022-08-25T23:59:36.161Z,13.70
